sensor_id;sensor_type;location;lat;lon;timestamp;P1;durP1;ratioP1;P2;durP2;ratioP2
36379;SDS011;22411;53.016;18.632;2023-01-28T00:02:08;3.40;;;2.07;;
36379;SDS011;22411;53.016;18.632;2023-01-28T00:04:33;6.67;;;3.70;;
36379;SDS011;22411;53.016;18.632;2023-01-28T00:07:00;6.50;;;3.57;;
36379;SDS011;22411;53.016;18.632;2023-01-28T00:09:26;5.83;;;3.73;;
36379;SDS011;22411;53.016;18.632;2023-01-28T00:11:52;5.33;;;3.30;;
36379;SDS011;22411;53.016;18.632;2023-01-28T00:14:17;6.77;;;4.20;;
36379;SDS011;22411;53.016;18.632;2023-01-28T00:16:44;5.77;;;3.47;;
36379;SDS011;22411;53.016;18.632;2023-01-28T00:19:10;4.30;;;2.87;;
36379;SDS011;22411;53.016;18.632;2023-01-28T00:21:37;3.30;;;2.90;;
36379;SDS011;22411;53.016;18.632;2023-01-28T00:24:02;3.97;;;2.37;;
36379;SDS011;22411;53.016;18.632;2023-01-28T00:26:29;3.60;;;2.57;;
36379;SDS011;22411;53.016;18.632;2023-01-28T00:28:55;4.57;;;2.53;;
36379;SDS011;22411;53.016;18.632;2023-01-28T00:31:22;6.50;;;2.77;;
36379;SDS011;22411;53.016;18.632;2023-01-28T00:33:50;4.83;;;3.33;;
36379;SDS011;22411;53.016;18.632;2023-01-28T00:36:17;6.10;;;3.90;;
36379;SDS011;22411;53.016;18.632;2023-01-28T00:38:48;3.47;;;3.03;;
36379;SDS011;22411;53.016;18.632;2023-01-28T00:41:16;5.55;;;2.80;;
36379;SDS011;22411;53.016;18.632;2023-01-28T00:43:46;5.00;;;2.70;;
36379;SDS011;22411;53.016;18.632;2023-01-28T00:46:13;5.53;;;2.60;;
36379;SDS011;22411;53.016;18.632;2023-01-28T00:48:40;4.67;;;2.63;;
36379;SDS011;22411;53.016;18.632;2023-01-28T00:51:08;3.30;;;2.17;;
36379;SDS011;22411;53.016;18.632;2023-01-28T00:53:35;3.77;;;1.90;;
36379;SDS011;22411;53.016;18.632;2023-01-28T00:56:03;8.03;;;2.37;;
36379;SDS011;22411;53.016;18.632;2023-01-28T00:58:30;4.50;;;2.57;;
36379;SDS011;22411;53.016;18.632;2023-01-28T01:01:05;4.27;;;2.37;;
36379;SDS011;22411;53.016;18.632;2023-01-28T01:06:05;7.73;;;2.47;;
36379;SDS011;22411;53.016;18.632;2023-01-28T01:08:32;4.00;;;2.00;;
36379;SDS011;22411;53.016;18.632;2023-01-28T01:11:05;4.30;;;2.63;;
36379;SDS011;22411;53.016;18.632;2023-01-28T01:13:32;3.23;;;1.60;;
36379;SDS011;22411;53.016;18.632;2023-01-28T01:16:06;2.63;;;1.97;;
36379;SDS011;22411;53.016;18.632;2023-01-28T01:18:36;3.67;;;1.87;;
36379;SDS011;22411;53.016;18.632;2023-01-28T01:21:14;2.65;;;1.90;;
36379;SDS011;22411;53.016;18.632;2023-01-28T01:23:42;2.90;;;1.80;;
36379;SDS011;22411;53.016;18.632;2023-01-28T01:26:09;3.03;;;1.97;;
36379;SDS011;22411;53.016;18.632;2023-01-28T01:28:35;3.37;;;2.27;;
36379;SDS011;22411;53.016;18.632;2023-01-28T01:31:14;3.33;;;2.03;;
36379;SDS011;22411;53.016;18.632;2023-01-28T01:33:42;3.37;;;1.80;;
36379;SDS011;22411;53.016;18.632;2023-01-28T01:36:10;4.60;;;1.80;;
36379;SDS011;22411;53.016;18.632;2023-01-28T01:38:37;2.80;;;1.63;;
36379;SDS011;22411;53.016;18.632;2023-01-28T01:41:05;3.40;;;2.30;;
36379;SDS011;22411;53.016;18.632;2023-01-28T01:43:51;3.50;;;2.23;;
36379;SDS011;22411;53.016;18.632;2023-01-28T01:46:21;3.77;;;2.00;;
36379;SDS011;22411;53.016;18.632;2023-01-28T01:48:52;6.50;;;3.83;;
36379;SDS011;22411;53.016;18.632;2023-01-28T01:51:23;5.00;;;3.13;;
36379;SDS011;22411;53.016;18.632;2023-01-28T01:53:52;3.47;;;2.67;;
36379;SDS011;22411;53.016;18.632;2023-01-28T01:56:21;4.40;;;2.63;;
36379;SDS011;22411;53.016;18.632;2023-01-28T01:58:52;4.40;;;2.13;;
36379;SDS011;22411;53.016;18.632;2023-01-28T02:01:21;4.53;;;2.63;;
36379;SDS011;22411;53.016;18.632;2023-01-28T02:06:38;5.87;;;3.17;;
36379;SDS011;22411;53.016;18.632;2023-01-28T02:09:06;7.07;;;2.27;;
36379;SDS011;22411;53.016;18.632;2023-01-28T02:11:47;5.83;;;3.00;;
36379;SDS011;22411;53.016;18.632;2023-01-28T02:14:13;5.23;;;2.17;;
36379;SDS011;22411;53.016;18.632;2023-01-28T02:16:39;5.33;;;3.03;;
36379;SDS011;22411;53.016;18.632;2023-01-28T02:19:05;4.43;;;2.63;;
36379;SDS011;22411;53.016;18.632;2023-01-28T02:21:41;6.43;;;3.27;;
36379;SDS011;22411;53.016;18.632;2023-01-28T02:24:40;4.53;;;2.67;;
36379;SDS011;22411;53.016;18.632;2023-01-28T02:30:18;7.07;;;3.60;;
36379;SDS011;22411;53.016;18.632;2023-01-28T02:32:52;4.53;;;3.50;;
36379;SDS011;22411;53.016;18.632;2023-01-28T02:38:10;5.60;;;3.63;;
36379;SDS011;22411;53.016;18.632;2023-01-28T02:40:42;5.77;;;3.47;;
36379;SDS011;22411;53.016;18.632;2023-01-28T02:43:41;5.53;;;3.47;;
36379;SDS011;22411;53.016;18.632;2023-01-28T02:46:19;6.15;;;2.78;;
36379;SDS011;22411;53.016;18.632;2023-01-28T02:49:05;5.77;;;2.87;;
36379;SDS011;22411;53.016;18.632;2023-01-28T02:54:13;5.77;;;3.40;;
36379;SDS011;22411;53.016;18.632;2023-01-28T02:56:55;5.93;;;3.40;;
36379;SDS011;22411;53.016;18.632;2023-01-28T02:59:35;4.30;;;2.87;;
36379;SDS011;22411;53.016;18.632;2023-01-28T03:02:08;3.07;;;2.40;;
36379;SDS011;22411;53.016;18.632;2023-01-28T03:04:50;7.53;;;3.27;;
36379;SDS011;22411;53.016;18.632;2023-01-28T03:07:22;5.05;;;2.90;;
36379;SDS011;22411;53.016;18.632;2023-01-28T03:09:54;4.30;;;2.20;;
36379;SDS011;22411;53.016;18.632;2023-01-28T03:12:26;4.60;;;2.63;;
36379;SDS011;22411;53.016;18.632;2023-01-28T03:15:17;5.30;;;3.10;;
36379;SDS011;22411;53.016;18.632;2023-01-28T03:18:26;5.07;;;1.97;;
36379;SDS011;22411;53.016;18.632;2023-01-28T03:21:12;4.67;;;2.40;;
36379;SDS011;22411;53.016;18.632;2023-01-28T03:24:06;3.73;;;2.10;;
36379;SDS011;22411;53.016;18.632;2023-01-28T03:30:00;4.00;;;2.17;;
36379;SDS011;22411;53.016;18.632;2023-01-28T03:32:52;4.83;;;2.30;;
36379;SDS011;22411;53.016;18.632;2023-01-28T03:35:39;3.03;;;2.33;;
36379;SDS011;22411;53.016;18.632;2023-01-28T03:38:24;4.97;;;2.00;;
36379;SDS011;22411;53.016;18.632;2023-01-28T03:41:00;4.60;;;1.87;;
36379;SDS011;22411;53.016;18.632;2023-01-28T03:43:29;4.60;;;1.90;;
36379;SDS011;22411;53.016;18.632;2023-01-28T03:45:55;2.43;;;1.67;;
36379;SDS011;22411;53.016;18.632;2023-01-28T03:48:23;4.73;;;2.63;;
36379;SDS011;22411;53.016;18.632;2023-01-28T03:50:51;3.60;;;1.93;;
36379;SDS011;22411;53.016;18.632;2023-01-28T03:53:18;4.47;;;2.40;;
36379;SDS011;22411;53.016;18.632;2023-01-28T03:55:45;4.13;;;2.13;;
36379;SDS011;22411;53.016;18.632;2023-01-28T03:58:13;7.43;;;2.53;;
36379;SDS011;22411;53.016;18.632;2023-01-28T04:00:40;4.67;;;2.93;;
36379;SDS011;22411;53.016;18.632;2023-01-28T04:03:07;4.73;;;2.10;;
36379;SDS011;22411;53.016;18.632;2023-01-28T04:05:56;3.47;;;1.83;;
36379;SDS011;22411;53.016;18.632;2023-01-28T04:08:26;4.57;;;2.13;;
36379;SDS011;22411;53.016;18.632;2023-01-28T04:10:52;6.50;;;3.20;;
36379;SDS011;22411;53.016;18.632;2023-01-28T04:13:18;6.27;;;2.73;;
36379;SDS011;22411;53.016;18.632;2023-01-28T04:15:44;3.97;;;2.63;;
36379;SDS011;22411;53.016;18.632;2023-01-28T04:18:11;5.07;;;2.43;;
36379;SDS011;22411;53.016;18.632;2023-01-28T04:20:37;4.47;;;2.97;;
36379;SDS011;22411;53.016;18.632;2023-01-28T04:23:04;3.63;;;2.27;;
36379;SDS011;22411;53.016;18.632;2023-01-28T04:25:32;4.07;;;2.67;;
36379;SDS011;22411;53.016;18.632;2023-01-28T04:27:59;3.93;;;2.40;;
36379;SDS011;22411;53.016;18.632;2023-01-28T04:30:25;4.43;;;2.67;;
36379;SDS011;22411;53.016;18.632;2023-01-28T04:32:54;4.37;;;2.60;;
36379;SDS011;22411;53.016;18.632;2023-01-28T04:35:20;4.67;;;2.50;;
36379;SDS011;22411;53.016;18.632;2023-01-28T04:37:46;4.67;;;2.50;;
36379;SDS011;22411;53.016;18.632;2023-01-28T04:40:11;4.53;;;2.57;;
36379;SDS011;22411;53.016;18.632;2023-01-28T04:42:38;5.93;;;3.10;;
36379;SDS011;22411;53.016;18.632;2023-01-28T04:45:04;4.73;;;2.70;;
36379;SDS011;22411;53.016;18.632;2023-01-28T04:47:30;4.60;;;2.67;;
36379;SDS011;22411;53.016;18.632;2023-01-28T04:49:56;6.10;;;2.87;;
36379;SDS011;22411;53.016;18.632;2023-01-28T04:52:22;4.80;;;2.40;;
36379;SDS011;22411;53.016;18.632;2023-01-28T04:54:48;5.10;;;2.23;;
36379;SDS011;22411;53.016;18.632;2023-01-28T04:57:14;6.03;;;2.50;;
36379;SDS011;22411;53.016;18.632;2023-01-28T04:59:41;5.47;;;2.70;;
36379;SDS011;22411;53.016;18.632;2023-01-28T05:02:07;6.97;;;3.67;;
36379;SDS011;22411;53.016;18.632;2023-01-28T05:04:33;13.97;;;9.47;;
36379;SDS011;22411;53.016;18.632;2023-01-28T05:07:00;31.87;;;26.67;;
36379;SDS011;22411;53.016;18.632;2023-01-28T05:09:26;108.10;;;64.07;;
36379;SDS011;22411;53.016;18.632;2023-01-28T05:11:52;217.20;;;129.27;;
36379;SDS011;22411;53.016;18.632;2023-01-28T05:14:18;100.07;;;54.87;;
36379;SDS011;22411;53.016;18.632;2023-01-28T05:16:44;63.43;;;35.57;;
36379;SDS011;22411;53.016;18.632;2023-01-28T05:19:13;20.33;;;11.13;;
36379;SDS011;22411;53.016;18.632;2023-01-28T05:21:39;6.73;;;4.07;;
36379;SDS011;22411;53.016;18.632;2023-01-28T05:24:05;3.83;;;2.40;;
36379;SDS011;22411;53.016;18.632;2023-01-28T05:26:32;3.17;;;2.13;;
36379;SDS011;22411;53.016;18.632;2023-01-28T05:28:57;3.03;;;2.10;;
36379;SDS011;22411;53.016;18.632;2023-01-28T05:31:24;2.87;;;1.87;;
36379;SDS011;22411;53.016;18.632;2023-01-28T05:33:49;2.07;;;1.53;;
36379;SDS011;22411;53.016;18.632;2023-01-28T05:36:17;4.33;;;1.80;;
36379;SDS011;22411;53.016;18.632;2023-01-28T05:38:43;5.87;;;3.27;;
36379;SDS011;22411;53.016;18.632;2023-01-28T05:41:10;7.23;;;4.30;;
36379;SDS011;22411;53.016;18.632;2023-01-28T05:43:35;7.60;;;4.13;;
36379;SDS011;22411;53.016;18.632;2023-01-28T05:46:02;6.17;;;3.60;;
36379;SDS011;22411;53.016;18.632;2023-01-28T05:48:27;4.60;;;3.50;;
36379;SDS011;22411;53.016;18.632;2023-01-28T05:50:54;3.87;;;2.67;;
36379;SDS011;22411;53.016;18.632;2023-01-28T05:53:19;4.03;;;2.20;;
36379;SDS011;22411;53.016;18.632;2023-01-28T05:55:46;4.40;;;1.73;;
36379;SDS011;22411;53.016;18.632;2023-01-28T05:58:13;8.17;;;3.37;;
36379;SDS011;22411;53.016;18.632;2023-01-28T06:00:39;6.87;;;4.37;;
36379;SDS011;22411;53.016;18.632;2023-01-28T06:03:05;9.33;;;4.67;;
36379;SDS011;22411;53.016;18.632;2023-01-28T06:05:31;12.33;;;5.47;;
36379;SDS011;22411;53.016;18.632;2023-01-28T06:07:57;11.53;;;4.97;;
36379;SDS011;22411;53.016;18.632;2023-01-28T06:10:23;8.27;;;4.43;;
36379;SDS011;22411;53.016;18.632;2023-01-28T06:12:49;8.07;;;4.60;;
36379;SDS011;22411;53.016;18.632;2023-01-28T06:15:15;13.93;;;5.60;;
36379;SDS011;22411;53.016;18.632;2023-01-28T06:17:41;11.63;;;5.33;;
36379;SDS011;22411;53.016;18.632;2023-01-28T06:20:07;10.70;;;5.53;;
36379;SDS011;22411;53.016;18.632;2023-01-28T06:22:34;8.97;;;4.43;;
36379;SDS011;22411;53.016;18.632;2023-01-28T06:25:00;12.43;;;5.77;;
36379;SDS011;22411;53.016;18.632;2023-01-28T06:27:26;10.53;;;5.37;;
36379;SDS011;22411;53.016;18.632;2023-01-28T06:29:52;14.13;;;4.87;;
36379;SDS011;22411;53.016;18.632;2023-01-28T06:32:18;9.93;;;4.90;;
36379;SDS011;22411;53.016;18.632;2023-01-28T06:34:44;9.77;;;4.83;;
36379;SDS011;22411;53.016;18.632;2023-01-28T06:37:13;9.80;;;5.20;;
36379;SDS011;22411;53.016;18.632;2023-01-28T06:39:39;10.07;;;5.47;;
36379;SDS011;22411;53.016;18.632;2023-01-28T06:42:05;9.17;;;4.37;;
36379;SDS011;22411;53.016;18.632;2023-01-28T06:44:32;8.27;;;4.90;;
36379;SDS011;22411;53.016;18.632;2023-01-28T06:46:57;9.87;;;4.60;;
36379;SDS011;22411;53.016;18.632;2023-01-28T06:49:23;7.43;;;4.30;;
36379;SDS011;22411;53.016;18.632;2023-01-28T06:51:49;10.70;;;4.90;;
36379;SDS011;22411;53.016;18.632;2023-01-28T06:54:15;7.53;;;4.93;;
36379;SDS011;22411;53.016;18.632;2023-01-28T06:56:42;9.07;;;4.97;;
36379;SDS011;22411;53.016;18.632;2023-01-28T06:59:08;7.10;;;4.07;;
36379;SDS011;22411;53.016;18.632;2023-01-28T07:01:34;8.07;;;4.37;;
36379;SDS011;22411;53.016;18.632;2023-01-28T07:04:01;8.27;;;4.43;;
36379;SDS011;22411;53.016;18.632;2023-01-28T07:06:27;6.97;;;4.40;;
36379;SDS011;22411;53.016;18.632;2023-01-28T07:08:53;5.17;;;4.00;;
36379;SDS011;22411;53.016;18.632;2023-01-28T07:11:19;9.27;;;4.30;;
36379;SDS011;22411;53.016;18.632;2023-01-28T07:13:45;8.23;;;4.37;;
36379;SDS011;22411;53.016;18.632;2023-01-28T07:16:12;7.67;;;4.60;;
36379;SDS011;22411;53.016;18.632;2023-01-28T07:18:38;8.80;;;4.47;;
36379;SDS011;22411;53.016;18.632;2023-01-28T07:21:04;10.50;;;5.50;;
36379;SDS011;22411;53.016;18.632;2023-01-28T07:23:30;12.63;;;5.87;;
36379;SDS011;22411;53.016;18.632;2023-01-28T07:25:59;11.00;;;5.73;;
36379;SDS011;22411;53.016;18.632;2023-01-28T07:28:29;12.77;;;5.27;;
36379;SDS011;22411;53.016;18.632;2023-01-28T07:30:55;10.63;;;5.87;;
36379;SDS011;22411;53.016;18.632;2023-01-28T07:33:22;37.80;;;20.80;;
36379;SDS011;22411;53.016;18.632;2023-01-28T07:35:48;31.57;;;17.57;;
36379;SDS011;22411;53.016;18.632;2023-01-28T07:38:14;14.07;;;7.90;;
36379;SDS011;22411;53.016;18.632;2023-01-28T07:40:40;18.23;;;9.03;;
36379;SDS011;22411;53.016;18.632;2023-01-28T07:43:07;16.07;;;9.47;;
36379;SDS011;22411;53.016;18.632;2023-01-28T07:45:33;21.73;;;9.97;;
36379;SDS011;22411;53.016;18.632;2023-01-28T07:48:01;17.83;;;9.67;;
36379;SDS011;22411;53.016;18.632;2023-01-28T07:53:01;11.57;;;7.00;;
36379;SDS011;22411;53.016;18.632;2023-01-28T07:55:28;19.33;;;12.27;;
36379;SDS011;22411;53.016;18.632;2023-01-28T07:57:56;11.77;;;6.87;;
36379;SDS011;22411;53.016;18.632;2023-01-28T08:00:24;10.83;;;4.87;;
36379;SDS011;22411;53.016;18.632;2023-01-28T08:02:59;11.57;;;5.70;;
36379;SDS011;22411;53.016;18.632;2023-01-28T08:05:37;9.73;;;5.27;;
36379;SDS011;22411;53.016;18.632;2023-01-28T08:08:08;13.90;;;5.63;;
36379;SDS011;22411;53.016;18.632;2023-01-28T08:10:35;8.43;;;5.30;;
36379;SDS011;22411;53.016;18.632;2023-01-28T08:13:02;9.03;;;6.23;;
36379;SDS011;22411;53.016;18.632;2023-01-28T08:15:28;8.97;;;5.43;;
36379;SDS011;22411;53.016;18.632;2023-01-28T08:17:56;9.00;;;5.93;;
36379;SDS011;22411;53.016;18.632;2023-01-28T08:20:26;9.90;;;6.20;;
36379;SDS011;22411;53.016;18.632;2023-01-28T08:23:04;26.33;;;20.30;;
36379;SDS011;22411;53.016;18.632;2023-01-28T08:25:32;38.97;;;29.00;;
36379;SDS011;22411;53.016;18.632;2023-01-28T08:27:58;18.00;;;14.27;;
36379;SDS011;22411;53.016;18.632;2023-01-28T08:30:24;23.67;;;16.77;;
36379;SDS011;22411;53.016;18.632;2023-01-28T08:32:50;22.70;;;16.37;;
36379;SDS011;22411;53.016;18.632;2023-01-28T08:35:16;14.43;;;12.73;;
36379;SDS011;22411;53.016;18.632;2023-01-28T08:37:42;18.27;;;13.90;;
36379;SDS011;22411;53.016;18.632;2023-01-28T08:40:08;21.07;;;11.93;;
36379;SDS011;22411;53.016;18.632;2023-01-28T08:42:39;12.52;;;10.30;;
36379;SDS011;22411;53.016;18.632;2023-01-28T08:45:04;14.10;;;8.47;;
36379;SDS011;22411;53.016;18.632;2023-01-28T08:47:31;15.57;;;10.93;;
36379;SDS011;22411;53.016;18.632;2023-01-28T08:49:58;25.60;;;22.83;;
36379;SDS011;22411;53.016;18.632;2023-01-28T08:52:24;22.60;;;20.37;;
36379;SDS011;22411;53.016;18.632;2023-01-28T08:54:50;15.17;;;12.43;;
36379;SDS011;22411;53.016;18.632;2023-01-28T08:57:16;69.87;;;51.83;;
36379;SDS011;22411;53.016;18.632;2023-01-28T08:59:42;49.73;;;39.43;;
36379;SDS011;22411;53.016;18.632;2023-01-28T09:02:13;28.87;;;22.47;;
36379;SDS011;22411;53.016;18.632;2023-01-28T09:04:40;19.30;;;13.27;;
36379;SDS011;22411;53.016;18.632;2023-01-28T09:07:10;27.42;;;20.08;;
36379;SDS011;22411;53.016;18.632;2023-01-28T09:09:36;55.60;;;49.50;;
36379;SDS011;22411;53.016;18.632;2023-01-28T09:12:02;28.60;;;19.03;;
36379;SDS011;22411;53.016;18.632;2023-01-28T09:14:30;17.70;;;14.87;;
36379;SDS011;22411;53.016;18.632;2023-01-28T09:16:56;17.07;;;11.57;;
36379;SDS011;22411;53.016;18.632;2023-01-28T09:19:22;15.83;;;10.30;;
36379;SDS011;22411;53.016;18.632;2023-01-28T09:21:48;15.63;;;9.33;;
36379;SDS011;22411;53.016;18.632;2023-01-28T09:24:14;12.43;;;8.20;;
36379;SDS011;22411;53.016;18.632;2023-01-28T09:26:40;14.40;;;8.03;;
36379;SDS011;22411;53.016;18.632;2023-01-28T09:29:06;16.00;;;10.23;;
36379;SDS011;22411;53.016;18.632;2023-01-28T09:31:32;15.63;;;9.67;;
36379;SDS011;22411;53.016;18.632;2023-01-28T09:33:58;17.53;;;10.33;;
36379;SDS011;22411;53.016;18.632;2023-01-28T09:36:27;19.10;;;13.10;;
36379;SDS011;22411;53.016;18.632;2023-01-28T09:38:53;15.80;;;10.70;;
36379;SDS011;22411;53.016;18.632;2023-01-28T09:41:24;16.27;;;9.13;;
36379;SDS011;22411;53.016;18.632;2023-01-28T09:44:06;20.00;;;11.70;;
36379;SDS011;22411;53.016;18.632;2023-01-28T09:46:38;13.82;;;8.30;;
36379;SDS011;22411;53.016;18.632;2023-01-28T09:52:12;14.77;;;8.23;;
36379;SDS011;22411;53.016;18.632;2023-01-28T09:57:52;18.23;;;11.30;;
36379;SDS011;22411;53.016;18.632;2023-01-28T10:00:21;19.87;;;11.57;;
36379;SDS011;22411;53.016;18.632;2023-01-28T10:05:51;18.23;;;13.53;;
36379;SDS011;22411;53.016;18.632;2023-01-28T10:16:56;14.33;;;8.27;;
36379;SDS011;22411;53.016;18.632;2023-01-28T10:19:34;14.43;;;7.50;;
36379;SDS011;22411;53.016;18.632;2023-01-28T10:22:15;11.43;;;5.27;;
36379;SDS011;22411;53.016;18.632;2023-01-28T10:24:56;13.80;;;6.03;;
36379;SDS011;22411;53.016;18.632;2023-01-28T10:27:33;11.67;;;7.07;;
36379;SDS011;22411;53.016;18.632;2023-01-28T10:30:35;11.97;;;6.60;;
36379;SDS011;22411;53.016;18.632;2023-01-28T10:37:59;13.60;;;8.07;;
36379;SDS011;22411;53.016;18.632;2023-01-28T10:40:32;10.80;;;6.10;;
36379;SDS011;22411;53.016;18.632;2023-01-28T10:42:59;8.93;;;5.13;;
36379;SDS011;22411;53.016;18.632;2023-01-28T10:45:30;7.80;;;5.77;;
36379;SDS011;22411;53.016;18.632;2023-01-28T10:48:06;10.90;;;4.87;;
36379;SDS011;22411;53.016;18.632;2023-01-28T10:50:48;28.77;;;14.13;;
36379;SDS011;22411;53.016;18.632;2023-01-28T10:53:15;10.70;;;6.20;;
36379;SDS011;22411;53.016;18.632;2023-01-28T10:55:52;13.43;;;6.53;;
36379;SDS011;22411;53.016;18.632;2023-01-28T10:58:23;9.13;;;6.18;;
36379;SDS011;22411;53.016;18.632;2023-01-28T11:00:52;11.03;;;6.03;;
36379;SDS011;22411;53.016;18.632;2023-01-28T11:03:20;12.93;;;6.13;;
36379;SDS011;22411;53.016;18.632;2023-01-28T11:05:53;11.50;;;5.90;;
36379;SDS011;22411;53.016;18.632;2023-01-28T11:08:20;10.33;;;5.93;;
36379;SDS011;22411;53.016;18.632;2023-01-28T11:10:48;7.00;;;5.13;;
36379;SDS011;22411;53.016;18.632;2023-01-28T11:13:25;13.27;;;9.03;;
36379;SDS011;22411;53.016;18.632;2023-01-28T11:16:02;10.77;;;6.57;;
36379;SDS011;22411;53.016;18.632;2023-01-28T11:18:31;14.03;;;7.03;;
36379;SDS011;22411;53.016;18.632;2023-01-28T11:21:02;13.70;;;7.23;;
36379;SDS011;22411;53.016;18.632;2023-01-28T11:23:32;13.93;;;7.70;;
36379;SDS011;22411;53.016;18.632;2023-01-28T11:26:04;14.43;;;8.13;;
36379;SDS011;22411;53.016;18.632;2023-01-28T11:28:33;9.50;;;7.27;;
36379;SDS011;22411;53.016;18.632;2023-01-28T11:31:05;22.13;;;19.73;;
36379;SDS011;22411;53.016;18.632;2023-01-28T11:33:32;10.13;;;8.27;;
36379;SDS011;22411;53.016;18.632;2023-01-28T11:36:13;9.88;;;6.35;;
36379;SDS011;22411;53.016;18.632;2023-01-28T11:38:51;11.97;;;7.67;;
36379;SDS011;22411;53.016;18.632;2023-01-28T11:41:29;14.03;;;8.60;;
36379;SDS011;22411;53.016;18.632;2023-01-28T11:44:04;14.93;;;7.97;;
36379;SDS011;22411;53.016;18.632;2023-01-28T11:52:26;11.67;;;7.03;;
36379;SDS011;22411;53.016;18.632;2023-01-28T11:58:15;14.17;;;6.50;;
36379;SDS011;22411;53.016;18.632;2023-01-28T12:07:14;12.40;;;8.73;;
36379;SDS011;22411;53.016;18.632;2023-01-28T12:10:18;12.73;;;5.80;;
36379;SDS011;22411;53.016;18.632;2023-01-28T12:13:00;13.43;;;5.80;;
36379;SDS011;22411;53.016;18.632;2023-01-28T12:15:44;13.80;;;4.93;;
36379;SDS011;22411;53.016;18.632;2023-01-28T12:21:06;14.93;;;6.47;;
36379;SDS011;22411;53.016;18.632;2023-01-28T12:26:39;13.03;;;6.13;;
36379;SDS011;22411;53.016;18.632;2023-01-28T12:32:49;8.82;;;6.15;;
36379;SDS011;22411;53.016;18.632;2023-01-28T12:35:27;8.25;;;5.03;;
36379;SDS011;22411;53.016;18.632;2023-01-28T12:38:13;7.63;;;3.67;;
36379;SDS011;22411;53.016;18.632;2023-01-28T12:49:07;7.67;;;3.40;;
36379;SDS011;22411;53.016;18.632;2023-01-28T12:54:10;9.80;;;5.80;;
36379;SDS011;22411;53.016;18.632;2023-01-28T12:57:20;10.60;;;3.60;;
36379;SDS011;22411;53.016;18.632;2023-01-28T13:02:41;6.80;;;3.03;;
36379;SDS011;22411;53.016;18.632;2023-01-28T13:05:13;9.57;;;4.07;;
36379;SDS011;22411;53.016;18.632;2023-01-28T13:07:49;7.97;;;3.70;;
36379;SDS011;22411;53.016;18.632;2023-01-28T13:13:17;10.43;;;6.57;;
36379;SDS011;22411;53.016;18.632;2023-01-28T13:16:00;8.97;;;5.40;;
36379;SDS011;22411;53.016;18.632;2023-01-28T13:18:42;12.03;;;4.63;;
36379;SDS011;22411;53.016;18.632;2023-01-28T13:23:41;10.70;;;4.90;;
36379;SDS011;22411;53.016;18.632;2023-01-28T13:28:46;8.87;;;4.77;;
36379;SDS011;22411;53.016;18.632;2023-01-28T13:31:14;8.63;;;3.90;;
36379;SDS011;22411;53.016;18.632;2023-01-28T13:37:00;8.13;;;3.30;;
36379;SDS011;22411;53.016;18.632;2023-01-28T13:39:20;7.30;;;2.70;;
36379;SDS011;22411;53.016;18.632;2023-01-28T13:42:08;8.63;;;4.60;;
36379;SDS011;22411;53.016;18.632;2023-01-28T13:44:45;21.43;;;12.63;;
36379;SDS011;22411;53.016;18.632;2023-01-28T13:47:14;97.07;;;53.00;;
36379;SDS011;22411;53.016;18.632;2023-01-28T13:49:46;95.07;;;45.23;;
36379;SDS011;22411;53.016;18.632;2023-01-28T13:52:16;129.97;;;61.10;;
36379;SDS011;22411;53.016;18.632;2023-01-28T13:54:55;177.40;;;73.47;;
36379;SDS011;22411;53.016;18.632;2023-01-28T14:16:57;104.47;;;48.57;;
36379;SDS011;22411;53.016;18.632;2023-01-28T14:19:32;109.63;;;35.40;;
36379;SDS011;22411;53.016;18.632;2023-01-28T14:22:07;36.07;;;12.63;;
36379;SDS011;22411;53.016;18.632;2023-01-28T14:24:37;14.33;;;6.10;;
36379;SDS011;22411;53.016;18.632;2023-01-28T14:27:06;20.37;;;5.50;;
36379;SDS011;22411;53.016;18.632;2023-01-28T14:32:18;17.40;;;5.57;;
36379;SDS011;22411;53.016;18.632;2023-01-28T14:34:47;35.40;;;13.15;;
36379;SDS011;22411;53.016;18.632;2023-01-28T14:37:17;51.33;;;19.27;;
36379;SDS011;22411;53.016;18.632;2023-01-28T14:42:23;69.00;;;27.20;;
36379;SDS011;22411;53.016;18.632;2023-01-28T14:56:00;10.17;;;4.20;;
36379;SDS011;22411;53.016;18.632;2023-01-28T14:58:39;14.57;;;6.67;;
36379;SDS011;22411;53.016;18.632;2023-01-28T15:01:18;6.60;;;2.57;;
36379;SDS011;22411;53.016;18.632;2023-01-28T15:03:46;7.60;;;3.07;;
36379;SDS011;22411;53.016;18.632;2023-01-28T15:06:13;10.80;;;4.40;;
36379;SDS011;22411;53.016;18.632;2023-01-28T15:08:46;7.93;;;3.77;;
36379;SDS011;22411;53.016;18.632;2023-01-28T15:11:27;9.63;;;4.40;;
36379;SDS011;22411;53.016;18.632;2023-01-28T15:13:54;3.97;;;2.13;;
36379;SDS011;22411;53.016;18.632;2023-01-28T15:16:23;6.13;;;2.47;;
36379;SDS011;22411;53.016;18.632;2023-01-28T15:18:56;5.83;;;2.00;;
36379;SDS011;22411;53.016;18.632;2023-01-28T15:21:26;5.33;;;2.27;;
36379;SDS011;22411;53.016;18.632;2023-01-28T15:23:54;13.33;;;6.40;;
36379;SDS011;22411;53.016;18.632;2023-01-28T15:26:24;9.73;;;4.73;;
36379;SDS011;22411;53.016;18.632;2023-01-28T15:28:52;9.87;;;4.40;;
36379;SDS011;22411;53.016;18.632;2023-01-28T15:31:32;9.27;;;5.20;;
36379;SDS011;22411;53.016;18.632;2023-01-28T15:34:12;7.97;;;5.13;;
36379;SDS011;22411;53.016;18.632;2023-01-28T15:36:40;8.63;;;5.10;;
36379;SDS011;22411;53.016;18.632;2023-01-28T15:39:13;11.40;;;7.17;;
36379;SDS011;22411;53.016;18.632;2023-01-28T15:41:47;16.43;;;7.57;;
36379;SDS011;22411;53.016;18.632;2023-01-28T15:44:18;17.17;;;7.85;;
36379;SDS011;22411;53.016;18.632;2023-01-28T15:47:04;14.83;;;7.93;;
36379;SDS011;22411;53.016;18.632;2023-01-28T15:49:45;13.63;;;6.50;;
36379;SDS011;22411;53.016;18.632;2023-01-28T15:52:16;7.38;;;3.30;;
36379;SDS011;22411;53.016;18.632;2023-01-28T15:54:43;4.70;;;2.50;;
36379;SDS011;22411;53.016;18.632;2023-01-28T15:57:26;2.50;;;1.50;;
36379;SDS011;22411;53.016;18.632;2023-01-28T16:02:32;3.37;;;1.30;;
36379;SDS011;22411;53.016;18.632;2023-01-28T16:04:58;1.90;;;0.80;;
36379;SDS011;22411;53.016;18.632;2023-01-28T16:07:28;3.80;;;1.90;;
36379;SDS011;22411;53.016;18.632;2023-01-28T16:09:58;3.97;;;1.30;;
36379;SDS011;22411;53.016;18.632;2023-01-28T16:12:28;3.97;;;2.07;;
36379;SDS011;22411;53.016;18.632;2023-01-28T16:15:04;4.10;;;2.60;;
36379;SDS011;22411;53.016;18.632;2023-01-28T16:17:48;11.33;;;8.47;;
36379;SDS011;22411;53.016;18.632;2023-01-28T16:20:24;6.10;;;4.63;;
36379;SDS011;22411;53.016;18.632;2023-01-28T16:22:56;2.43;;;1.30;;
36379;SDS011;22411;53.016;18.632;2023-01-28T16:27:54;2.50;;;1.30;;
36379;SDS011;22411;53.016;18.632;2023-01-28T16:30:21;2.77;;;1.50;;
36379;SDS011;22411;53.016;18.632;2023-01-28T16:32:55;3.63;;;1.40;;
36379;SDS011;22411;53.016;18.632;2023-01-28T16:35:22;4.37;;;1.10;;
36379;SDS011;22411;53.016;18.632;2023-01-28T16:37:53;2.57;;;1.10;;
36379;SDS011;22411;53.016;18.632;2023-01-28T16:40:20;28.53;;;11.20;;
36379;SDS011;22411;53.016;18.632;2023-01-28T16:42:49;7.60;;;4.43;;
36379;SDS011;22411;53.016;18.632;2023-01-28T16:45:22;31.93;;;11.40;;
36379;SDS011;22411;53.016;18.632;2023-01-28T16:48:09;6.47;;;3.83;;
36379;SDS011;22411;53.016;18.632;2023-01-28T16:50:50;4.87;;;2.70;;
36379;SDS011;22411;53.016;18.632;2023-01-28T16:53:52;3.43;;;1.97;;
36379;SDS011;22411;53.016;18.632;2023-01-28T16:57:02;3.40;;;2.23;;
36379;SDS011;22411;53.016;18.632;2023-01-28T16:59:43;10.33;;;7.83;;
36379;SDS011;22411;53.016;18.632;2023-01-28T17:02:16;6.57;;;4.33;;